Observation data for Plains on 03/26/2019      Previous  Date  Next       Current Mesonet Observations  Soil Data  Daily Summary Page  Observations in Plain Language
KPPS 260500Z 13009KT 10/04 A3028 RMK A01 T01010044  RH  069%=      5-min Rain = 0
KPPS 260505Z 13009KT 10/05 A3028 RMK A01 T01030046  RH  069%=      5-min Rain = 0
KPPS 260510Z 12009KT 10/05 A3028 RMK A01 T01030046  RH  069%=      5-min Rain = 0
KPPS 260515Z 12009KT 10/05 A3028 RMK A01 T01030046  RH  069%=      5-min Rain = 0
KPPS 260520Z 13009KT 10/05 A3028 RMK A01 T01020047  RH  070%=      5-min Rain = 0
KPPS 260525Z 13009KT 10/05 A3028 RMK A01 T01000047  RH  071%=      5-min Rain = 0
KPPS 260530Z 13009KT 10/05 A3028 RMK A01 T00990047  RH  072%=      5-min Rain = 0
KPPS 260535Z 13009KT 10/05 A3028 RMK A01 T00980047  RH  072%=      5-min Rain = 0
KPPS 260540Z 13009KT 10/05 A3028 RMK A01 T00970047  RH  073%=      5-min Rain = 0
KPPS 260545Z 12009KT 10/05 A3028 RMK A01 T00970047  RH  073%=      5-min Rain = 0
KPPS 260550Z 12008KT 09/05 A3028 RMK A01 T00940047  RH  074%=      5-min Rain = 0
KPPS 260555Z 13008KT 09/05 A3028 RMK A01 T00920046  RH  074%=      5-min Rain = 0
KPPS 260600Z 12007KT 09/05 A3028 RMK A01 T00890045  RH  076%=      5-min Rain = 0
KPPS 260605Z 12007KT 09/04 A3028 RMK A01 T00850044  RH  077%=      5-min Rain = 0
KPPS 260610Z 13007KT 08/04 A3028 RMK A01 T00820043  RH  078%=      5-min Rain = 0
KPPS 260615Z 13007KT 08/04 A3028 RMK A01 T00790042  RH  079%=      5-min Rain = 0
KPPS 260620Z 13007KT 08/04 A3028 RMK A01 T00770041  RH  080%=      5-min Rain = 0
KPPS 260625Z 14008KT 08/04 A3028 RMK A01 T00770043  RH  080%=      5-min Rain = 0
KPPS 260630Z 14008KT 08/04 A3027 RMK A01 T00800044  RH  080%=      5-min Rain = 0
KPPS 260635Z 14008KT 08/04 A3027 RMK A01 T00790044  RH  080%=      5-min Rain = 0
KPPS 260640Z 13007KT 08/04 A3028 RMK A01 T00760043  RH  081%=      5-min Rain = 0
KPPS 260645Z 12007KT 08/04 A3028 RMK A01 T00750043  RH  082%=      5-min Rain = 0
KPPS 260650Z 12007KT 08/04 A3028 RMK A01 T00750044  RH  082%=      5-min Rain = 0
KPPS 260655Z 12008KT 08/05 A3028 RMK A01 T00770045  RH  082%=      5-min Rain = 0
KPPS 260700Z 13008KT 08/05 A3028 RMK A01 T00790046  RH  082%=      5-min Rain = 0
KPPS 260705Z 13009KT 08/05 A3027 RMK A01 T00790046  RH  082%=      5-min Rain = 0
KPPS 260710Z 13008KT 08/05 A3027 RMK A01 T00770046  RH  082%=      5-min Rain = 0
KPPS 260715Z 13007KT 08/05 A3027 RMK A01 T00750045  RH  083%=      5-min Rain = 0
KPPS 260720Z 13007KT 07/05 A3027 RMK A01 T00740045  RH  084%=      5-min Rain = 0
KPPS 260725Z 12006KT 07/05 A3027 RMK A01 T00730045  RH  084%=      5-min Rain = 0
KPPS 260730Z 12007KT 07/05 A3027 RMK A01 T00720045  RH  085%=      5-min Rain = 0
KPPS 260735Z 12006KT 07/05 A3027 RMK A01 T00720045  RH  085%=      5-min Rain = 0
KPPS 260740Z 12007KT 07/05 A3027 RMK A01 T00710045  RH  085%=      5-min Rain = 0
KPPS 260745Z 11008KT 07/05 A3027 RMK A01 T00720047  RH  086%=      5-min Rain = 0
KPPS 260750Z 12007KT 07/05 A3027 RMK A01 T00720046  RH  086%=      5-min Rain = 0
KPPS 260755Z 12007KT 07/05 A3027 RMK A01 T00700046  RH  086%=      5-min Rain = 0
KPPS 260800Z 11006KT 07/05 A3027 RMK A01 T00710047  RH  086%=      5-min Rain = 0
KPPS 260805Z 12007KT 07/05 A3027 RMK A01 T00720047  RH  086%=      5-min Rain = 0
KPPS 260810Z 12007KT 07/05 A3027 RMK A01 T00710046  RH  086%=      5-min Rain = 0
KPPS 260815Z 11007KT 07/05 A3027 RMK A01 T00700046  RH  087%=      5-min Rain = 0
KPPS 260820Z 11007KT 07/05 A3027 RMK A01 T00700047  RH  087%=      5-min Rain = 0
KPPS 260825Z 12007KT 07/05 A3027 RMK A01 T00700047  RH  087%=      5-min Rain = 0
KPPS 260830Z 12007KT 07/05 A3027 RMK A01 T00680047  RH  088%=      5-min Rain = 0
KPPS 260835Z 12006KT 07/05 A3027 RMK A01 T00670046  RH  089%=      5-min Rain = 0
KPPS 260840Z 12005KT 07/05 A3027 RMK A01 T00650045  RH  089%=      5-min Rain = 0
KPPS 260845Z 13005KT 06/05 A3027 RMK A01 T00640045  RH  090%=      5-min Rain = 0
KPPS 260850Z 14005KT 06/04 A3027 RMK A01 T00620044  RH  090%=      5-min Rain = 0
KPPS 260855Z 14006KT 06/04 A3027 RMK A01 T00620044  RH  090%=      5-min Rain = 0
KPPS 260900Z 14006KT 06/04 A3027 RMK A01 T00610043  RH  090%=      5-min Rain = 0
KPPS 260905Z 13005KT 06/04 A3027 RMK A01 T00560038  RH  090%=      5-min Rain = 0
KPPS 260910Z 12003KT 06/04 A3027 RMK A01 T00560042  RH  092%=      5-min Rain = 0
KPPS 260915Z 12003KT 06/04 A3027 RMK A01 T00580044  RH  092%=      5-min Rain = 0
KPPS 260920Z 15004KT 06/04 A3027 RMK A01 T00590043  RH  092%=      5-min Rain = 0
KPPS 260925Z 17006KT 06/04 A3026 RMK A01 T00580043  RH  092%=      5-min Rain = 0
KPPS 260930Z 17007KT 06/04 A3026 RMK A01 T00580042  RH  092%=      5-min Rain = 0
KPPS 260935Z 17007KT 06/04 A3027 RMK A01 T00550040  RH  092%=      5-min Rain = 0
KPPS 260940Z 16007KT 06/04 A3027 RMK A01 T00550042  RH  093%=      5-min Rain = 0
KPPS 260945Z 14007KT 06/04 A3027 RMK A01 T00560042  RH  093%=      5-min Rain = 0
KPPS 260950Z 15007KT 06/04 A3027 RMK A01 T00550041  RH  093%=      5-min Rain = 0
KPPS 260955Z 16007KT 06/04 A3026 RMK A01 T00550042  RH  094%=      5-min Rain = 0
KPPS 261000Z 15007KT 06/04 A3027 RMK A01 T00560044  RH  093%=      5-min Rain = 0
KPPS 261005Z 14006KT 05/04 A3027 RMK A01 T00520038  RH  092%=      5-min Rain = 0
KPPS 261010Z 13006KT 05/04 A3027 RMK A01 T00490037  RH  093%=      5-min Rain = 0
KPPS 261015Z 10005KT 05/04 A3027 RMK A01 T00490037  RH  094%=      5-min Rain = 0
KPPS 261020Z 09006KT 05/03 A3027 RMK A01 T00450034  RH  094%=      5-min Rain = 0
KPPS 261025Z 09006KT 04/03 A3027 RMK A01 T00420031  RH  095%=      5-min Rain = 0
KPPS 261030Z 10006KT 04/04 A3027 RMK A01 T00430035  RH  096%=      5-min Rain = 0
KPPS 261035Z 07007KT 04/03 A3028 RMK A01 T00380028  RH  095%=      5-min Rain = 0
KPPS 261040Z 08006KT 04/03 A3028 RMK A01 T00370028  RH  096%=      5-min Rain = 0
KPPS 261045Z 09007KT 04/03 A3028 RMK A01 T00390032  RH  097%=      5-min Rain = 0
KPPS 261050Z 09008KT 05/04 A3028 RMK A01 T00490043  RH  098%=      5-min Rain = 0
KPPS 261055Z 09007KT 05/05 A3028 RMK A01 T00530045  RH  097%=      5-min Rain = 0
KPPS 261100Z 09007KT 05/04 A3029 RMK A01 T00520043  RH  096%=      5-min Rain = 0
KPPS 261105Z 09007KT 05/04 A3029 RMK A01 T00510042  RH  096%=      5-min Rain = 0
KPPS 261110Z 09006KT 05/04 A3029 RMK A01 T00500042  RH  096%=      5-min Rain = 0
KPPS 261115Z 10006KT 05/04 A3029 RMK A01 T00510043  RH  096%=      5-min Rain = 0
KPPS 261120Z 10007KT 05/04 A3029 RMK A01 T00490040  RH  096%=      5-min Rain = 0
KPPS 261125Z 09007KT 05/04 A3029 RMK A01 T00470039  RH  096%=      5-min Rain = 0
KPPS 261130Z 10007KT 05/04 A3029 RMK A01 T00480041  RH  097%=      5-min Rain = 0
KPPS 261135Z 10007KT 05/04 A3029 RMK A01 T00480040  RH  097%=      5-min Rain = 0
KPPS 261140Z 10007KT 05/04 A3029 RMK A01 T00460038  RH  096%=      5-min Rain = 0
KPPS 261145Z 10007KT 05/04 A3029 RMK A01 T00460039  RH  097%=      5-min Rain = 0
KPPS 261150Z 11007KT 05/04 A3029 RMK A01 T00480041  RH  097%=      5-min Rain = 0
KPPS 261155Z 11007KT 05/04 A3029 RMK A01 T00480042  RH  097%=      5-min Rain = 0
KPPS 261200Z 11008KT 05/04 A3029 RMK A01 T00510044  RH  097%=      5-min Rain = 0
KPPS 261205Z 11008KT 05/05 A303 RMK A01 T00530046  RH  097%=      5-min Rain = 0
KPPS 261210Z 11008KT 06/05 A303 RMK A01 T00550048  RH  097%=      5-min Rain = 0
KPPS 261215Z 10007KT 06/05 A303 RMK A01 T00560048  RH  097%=      5-min Rain = 0
KPPS 261220Z 10006KT 06/05 A303 RMK A01 T00550048  RH  097%=      5-min Rain = 0
KPPS 261225Z 10006KT 05/05 A303 RMK A01 T00540047  RH  097%=      5-min Rain = 0
KPPS 261230Z 10007KT 05/05 A303 RMK A01 T00540047  RH  097%=      5-min Rain = 0
KPPS 261235Z 11007KT 06/05 A3031 RMK A01 T00550047  RH  097%=      5-min Rain = 0
KPPS 261240Z 11007KT 05/05 A3031 RMK A01 T00540047  RH  097%=      5-min Rain = 0
KPPS 261245Z 11008KT 06/05 A3031 RMK A01 T00550048  RH  097%=      5-min Rain = 0
KPPS 261250Z 11007KT 06/05 A3031 RMK A01 T00560048  RH  097%=      5-min Rain = 0
KPPS 261255Z 10007KT 06/05 A3031 RMK A01 T00560048  RH  097%=      5-min Rain = 0
KPPS 261300Z 11007KT 06/05 A3031 RMK A01 T00560048  RH  097%=      5-min Rain = 0
KPPS 261305Z 11007KT 06/05 A3031 RMK A01 T00570048  RH  096%=      5-min Rain = 0
KPPS 261310Z 11007KT 06/05 A3032 RMK A01 T00580049  RH  096%=      5-min Rain = 0
KPPS 261315Z 10007G12KT 06/05 A3032 RMK A01 T00580050  RH  096%=      5-min Rain = 0
KPPS 261320Z 11008KT 06/05 A3032 RMK A01 T00600051  RH  096%=      5-min Rain = 0
KPPS 261325Z 11009KT 06/05 A3032 RMK A01 T00620053  RH  096%=      5-min Rain = 0
KPPS 261330Z 11009KT 06/05 A3032 RMK A01 T00640054  RH  095%=      5-min Rain = 0
KPPS 261335Z 11009KT 07/05 A3032 RMK A01 T00660054  RH  095%=      5-min Rain = 0
KPPS 261340Z 11010KT 07/06 A3032 RMK A01 T00670055  RH  094%=      5-min Rain = 0
KPPS 261345Z 11009KT 07/06 A3033 RMK A01 T00690056  RH  093%=      5-min Rain = 0
KPPS 261350Z 11009KT 07/06 A3033 RMK A01 T00720057  RH  092%=      5-min Rain = 0
KPPS 261355Z 12009KT 07/06 A3033 RMK A01 T00720057  RH  092%=      5-min Rain = 0
KPPS 261400Z 12011KT 07/06 A3033 RMK A01 T00740057  RH  092%=      5-min Rain = 0
KPPS 261405Z 12010KT 08/06 A3033 RMK A01 T00770059  RH  091%=      5-min Rain = 0
KPPS 261410Z 12012KT 08/06 A3033 RMK A01 T00770058  RH  090%=      5-min Rain = 0
KPPS 261415Z 12010KT 08/06 A3034 RMK A01 T00800061  RH  090%=      5-min Rain = 0
KPPS 261420Z 12011G16KT 08/06 A3034 RMK A01 T00840061  RH  088%=      5-min Rain = 0
KPPS 261425Z 12012KT 09/06 A3034 RMK A01 T00860062  RH  087%=      5-min Rain = 0
KPPS 261430Z 12013KT 09/06 A3034 RMK A01 T00870060  RH  085%=      5-min Rain = 0
KPPS 261435Z 12013KT 09/06 A3034 RMK A01 T00910062  RH  084%=      5-min Rain = 0
KPPS 261440Z 13013KT 10/06 A3034 RMK A01 T00980064  RH  082%=      5-min Rain = 0
KPPS 261445Z 12014KT 10/06 A3034 RMK A01 T00990063  RH  080%=      5-min Rain = 0
KPPS 261450Z 13013G18KT 10/06 A3034 RMK A01 T01000062  RH  079%=      5-min Rain = 0
KPPS 261455Z 13013KT 10/06 A3034 RMK A01 T01030063  RH  078%=      5-min Rain = 0
KPPS 261500Z 12013KT 10/06 A3034 RMK A01 T01040062  RH  077%=      5-min Rain = 0
KPPS 261505Z 12013KT 11/06 A3034 RMK A01 T01080062  RH  075%=      5-min Rain = 0
KPPS 261510Z 13014G20KT 11/06 A3034 RMK A01 T01100062  RH  074%=      5-min Rain = 0
KPPS 261515Z 13016KT 11/06 A3034 RMK A01 T01090059  RH  073%=      5-min Rain = 0
KPPS 261520Z 12014KT 11/06 A3034 RMK A01 T01080060  RH  074%=      5-min Rain = 0
KPPS 261525Z 13015KT 11/06 A3034 RMK A01 T01130062  RH  072%=      5-min Rain = 0
KPPS 261530Z 13014KT 12/06 A3034 RMK A01 T01160062  RH  071%=      5-min Rain = 0
KPPS 261535Z 13014KT 11/06 A3034 RMK A01 T01130060  RH  071%=      5-min Rain = 0
KPPS 261540Z 13015G20KT 12/06 A3034 RMK A01 T01160060  RH  070%=      5-min Rain = 0
KPPS 261545Z 14014G19KT 12/06 A3034 RMK A01 T01190061  RH  069%=      5-min Rain = 0
KPPS 261550Z 13015KT 12/06 A3034 RMK A01 T01160059  RH  069%=      5-min Rain = 0
KPPS 261555Z 13015G20KT 12/06 A3034 RMK A01 T01160059  RH  070%=      5-min Rain = 0
KPPS 261600Z 14013KT 13/06 A3035 RMK A01 T01260063  RH  067%=      5-min Rain = 0
KPPS 261605Z 14014G19KT 12/06 A3035 RMK A01 T01210059  RH  067%=      5-min Rain = 0
KPPS 261610Z 13014KT 12/06 A3035 RMK A01 T01200060  RH  068%=      5-min Rain = 0
KPPS 261615Z 14015G20KT 12/06 A3035 RMK A01 T01240062  RH  068%=      5-min Rain = 0
KPPS 261620Z 14014KT 13/06 A3035 RMK A01 T01310064  RH  065%=      5-min Rain = 0
KPPS 261625Z 12015KT 13/06 A3035 RMK A01 T01320063  RH  064%=      5-min Rain = 0
KPPS 261630Z 13012G17KT 13/06 A3035 RMK A01 T01300062  RH  065%=      5-min Rain = 0
KPPS 261635Z 14014G20KT 13/06 A3035 RMK A01 T01340063  RH  064%=      5-min Rain = 0
KPPS 261640Z 16014KT 13/06 A3035 RMK A01 T01330062  RH  063%=      5-min Rain = 0
KPPS 261645Z 14013G18KT 13/06 A3035 RMK A01 T01330063  RH  064%=      5-min Rain = 0
KPPS 261650Z 14012KT 14/06 A3035 RMK A01 T01350062  RH  063%=      5-min Rain = 0
KPPS 261655Z 14012KT 14/06 A3035 RMK A01 T01370063  RH  062%=      5-min Rain = 0
KPPS 261700Z 14014KT 14/06 A3035 RMK A01 T01380062  RH  062%=      5-min Rain = 0
KPPS 261705Z 13012KT 14/06 A3035 RMK A01 T01360062  RH  062%=      5-min Rain = 0
KPPS 261710Z 14012KT 14/07 A3035 RMK A01 T01420065  RH  061%=      5-min Rain = 0
KPPS 261715Z 14012KT 14/06 A3035 RMK A01 T01430064  RH  061%=      5-min Rain = 0
KPPS 261720Z 14014KT 14/06 A3034 RMK A01 T01430064  RH  060%=      5-min Rain = 0
KPPS 261725Z 14014KT 14/06 A3034 RMK A01 T01400062  RH  061%=      5-min Rain = 0
KPPS 261730Z 13013KT 14/06 A3034 RMK A01 T01410063  RH  061%=      5-min Rain = 0
KPPS 261735Z 13012G18KT 14/07 A3034 RMK A01 T01430065  RH  061%=      5-min Rain = 0
KPPS 261740Z 13011G16KT 15/07 A3034 RMK A01 T01450066  RH  060%=      5-min Rain = 0
KPPS 261745Z 13012G18KT 15/07 A3033 RMK A01 T01480066  RH  059%=      5-min Rain = 0
KPPS 261750Z 13011KT 15/07 A3033 RMK A01 T01530068  RH  058%=      5-min Rain = 0
KPPS 261755Z 13012KT 16/07 A3033 RMK A01 T01590069  RH  057%=      5-min Rain = 0
KPPS 261800Z 14012KT 16/07 A3033 RMK A01 T01590068  RH  056%=      5-min Rain = 0
KPPS 261805Z 14012G17KT 16/07 A3032 RMK A01 T01600068  RH  056%=      5-min Rain = 0
KPPS 261810Z 13011G17KT 16/07 A3032 RMK A01 T01610069  RH  056%=      5-min Rain = 0
KPPS 261815Z 15012G19KT 16/07 A3032 RMK A01 T01640069  RH  055%=      5-min Rain = 0
KPPS 261820Z 15012KT 17/07 A3032 RMK A01 T01680069  RH  053%=      5-min Rain = 0
KPPS 261825Z 15012KT 17/07 A3031 RMK A01 T01710072  RH  054%=      5-min Rain = 0
KPPS 261830Z 15014G19KT 17/07 A3031 RMK A01 T01720072  RH  053%=      5-min Rain = 0
KPPS 261835Z 14014G19KT 18/07 A3031 RMK A01 T01760074  RH  053%=      5-min Rain = 0
KPPS 261840Z 15011G17KT 18/07 A3031 RMK A01 T01780074  RH  052%=      5-min Rain = 0
KPPS 261845Z 14013KT 18/08 A3031 RMK A01 T01800075  RH  051%=      5-min Rain = 0
KPPS 261850Z 15012G17KT 18/07 A3031 RMK A01 T01790072  RH  051%=      5-min Rain = 0
KPPS 261855Z 15010G22KT 18/08 A303 RMK A01 T01820075  RH  051%=      5-min Rain = 0
KPPS 261900Z 14015G21KT 19/08 A303 RMK A01 T01860075  RH  050%=      5-min Rain = 0
KPPS 261905Z 14011G16KT 18/08 A3029 RMK A01 T01840075  RH  050%=      5-min Rain = 0
KPPS 261910Z 13013G19KT 19/07 A3029 RMK A01 T01850074  RH  049%=      5-min Rain = 0
KPPS 261915Z 13012G18KT 19/08 A3029 RMK A01 T01870075  RH  049%=      5-min Rain = 0
KPPS 261920Z 15012G17KT 19/08 A3028 RMK A01 T01910077  RH  049%=      5-min Rain = 0
KPPS 261925Z 13014KT 19/08 A3028 RMK A01 T01910077  RH  049%=      5-min Rain = 0
KPPS 261930Z 13010G16KT 19/08 A3028 RMK A01 T01920075  RH  048%=      5-min Rain = 0
KPPS 261935Z 14011G16KT 20/08 A3027 RMK A01 T01960079  RH  048%=      5-min Rain = 0
KPPS 261940Z 14014G20KT 20/08 A3027 RMK A01 T01980080  RH  048%=      5-min Rain = 0
KPPS 261945Z 14013G19KT 20/08 A3027 RMK A01 T01960081  RH  049%=      5-min Rain = 0
KPPS 261950Z 13013G19KT 20/08 A3026 RMK A01 T01960080  RH  048%=      5-min Rain = 0
KPPS 261955Z 15013G18KT 20/08 A3026 RMK A01 T01960081  RH  049%=      5-min Rain = 0
KPPS 262000Z 15014G22KT 20/08 A3026 RMK A01 T01970083  RH  049%=      5-min Rain = 0
KPPS 262005Z 15013G19KT 20/08 A3026 RMK A01 T01970082  RH  049%=      5-min Rain = 0
KPPS 262010Z 14014KT 20/08 A3026 RMK A01 T01990081  RH  048%=      5-min Rain = 0
KPPS 262015Z 13013G20KT 20/08 A3025 RMK A01 T02030082  RH  047%=      5-min Rain = 0
KPPS 262020Z 13012G18KT 20/08 A3025 RMK A01 T01980080  RH  048%=      5-min Rain = 0
KPPS 262025Z 12014G19KT 20/08 A3025 RMK A01 T02030080  RH  046%=      5-min Rain = 0
KPPS 262030Z 14014G20KT 20/08 A3025 RMK A01 T01990079  RH  047%=      5-min Rain = 0
KPPS 262035Z 15014G19KT 20/08 A3024 RMK A01 T02020079  RH  046%=      5-min Rain = 0
KPPS 262040Z 14014G21KT 20/08 A3024 RMK A01 T02030078  RH  046%=      5-min Rain = 0
KPPS 262045Z 15014G19KT 20/08 A3024 RMK A01 T02010078  RH  046%=      5-min Rain = 0
KPPS 262050Z 16014G22KT 21/08 A3024 RMK A01 T02050079  RH  045%=      5-min Rain = 0
KPPS 262055Z 15012G24KT 21/08 A3023 RMK A01 T02070080  RH  045%=      5-min Rain = 0
KPPS 262100Z 15015G20KT 21/08 A3023 RMK A01 T02090078  RH  044%=      5-min Rain = 0
KPPS 262105Z 15016KT 21/08 A3023 RMK A01 T02060077  RH  045%=      5-min Rain = 0
KPPS 262110Z 14015G20KT 21/08 A3022 RMK A01 T02080077  RH  044%=      5-min Rain = 0
KPPS 262115Z 14013G19KT 20/08 A3022 RMK A01 T02040077  RH  045%=      5-min Rain = 0
KPPS 262120Z 15013G21KT 21/08 A3022 RMK A01 T02050078  RH  045%=      5-min Rain = 0
KPPS 262125Z 16014KT 21/08 A3022 RMK A01 T02100080  RH  044%=      5-min Rain = 0
KPPS 262130Z 16015KT 21/08 A3022 RMK A01 T02110080  RH  044%=      5-min Rain = 0
KPPS 262135Z 15015G20KT 21/08 A3022 RMK A01 T02100081  RH  045%=      5-min Rain = 0
KPPS 262140Z 14017G24KT 21/08 A3021 RMK A01 T02090080  RH  045%=      5-min Rain = 0
KPPS 262145Z 15014G19KT 21/08 A3021 RMK A01 T02100080  RH  044%=      5-min Rain = 0
KPPS 262150Z 15015G23KT 21/08 A3021 RMK A01 T02130078  RH  043%=      5-min Rain = 0
KPPS 262155Z 14016KT 21/08 A3021 RMK A01 T02130078  RH  043%=      5-min Rain = 0
KPPS 262200Z 14015G21KT 21/08 A302 RMK A01 T02130079  RH  043%=      5-min Rain = 0
KPPS 262205Z 14015KT 21/08 A302 RMK A01 T02140080  RH  043%=      5-min Rain = 0
KPPS 262210Z 14016G22KT 21/08 A302 RMK A01 T02130081  RH  044%=      5-min Rain = 0
KPPS 262215Z 14015G21KT 21/08 A302 RMK A01 T02110081  RH  044%=      5-min Rain = 0
KPPS 262220Z 14015G23KT 22/08 A302 RMK A01 T02160082  RH  043%=      5-min Rain = 0
KPPS 262225Z 14017G23KT 21/08 A302 RMK A01 T02140082  RH  044%=      5-min Rain = 0
KPPS 262230Z 15018G24KT 21/08 A302 RMK A01 T02130080  RH  044%=      5-min Rain = 0
KPPS 262235Z 14016G22KT 21/08 A302 RMK A01 T02110082  RH  045%=      5-min Rain = 0
KPPS 262240Z 14017KT 21/08 A302 RMK A01 T02100082  RH  045%=      5-min Rain = 0
KPPS 262245Z 14016G21KT 21/08 A302 RMK A01 T02080082  RH  045%=      5-min Rain = 0
KPPS 262250Z 15016G22KT 21/08 A3019 RMK A01 T02090082  RH  045%=      5-min Rain = 0
KPPS 262255Z 16015KT 21/08 A3019 RMK A01 T02070080  RH  045%=      5-min Rain = 0
KPPS 262300Z 14015G23KT 21/08 A3019 RMK A01 T02090081  RH  045%=      5-min Rain = 0
KPPS 262305Z 14018KT 21/08 A3019 RMK A01 T02080080  RH  045%=      5-min Rain = 0
KPPS 262310Z 14018G24KT 21/08 A3019 RMK A01 T02060080  RH  046%=      5-min Rain = 0
KPPS 262315Z 14017KT 21/08 A3019 RMK A01 T02060080  RH  045%=      5-min Rain = 0
KPPS 262320Z 14016G21KT 21/08 A3018 RMK A01 T02060080  RH  045%=      5-min Rain = 0
KPPS 262325Z 13016G23KT 21/08 A3018 RMK A01 T02050080  RH  046%=      5-min Rain = 0
KPPS 262330Z 13018G23KT 20/08 A3018 RMK A01 T02040080  RH  046%=      5-min Rain = 0
KPPS 262335Z 13017G22KT 20/08 A3018 RMK A01 T02030080  RH  046%=      5-min Rain = 0
KPPS 262340Z 13016KT 20/08 A3018 RMK A01 T02030080  RH  047%=      5-min Rain = 0
KPPS 262345Z 13015KT 20/08 A3018 RMK A01 T02010080  RH  047%=      5-min Rain = 0
KPPS 262350Z 14014G19KT 20/08 A3018 RMK A01 T02030082  RH  047%=      5-min Rain = 0
KPPS 262355Z 14018KT 20/08 A3018 RMK A01 T02010081  RH  047%=      5-min Rain = 0
KPPS 270000Z 14017G22KT 20/08 A3018 RMK A01 T01980081  RH  048%=      5-min Rain = 0
KPPS 270005Z 13016KT 20/08 A3018 RMK A01 T01960081  RH  049%=      5-min Rain = 0
KPPS 270010Z 15015KT 20/08 A3018 RMK A01 T01950081  RH  049%=      5-min Rain = 0
KPPS 270015Z 14017G22KT 20/08 A3018 RMK A01 T01950081  RH  049%=      5-min Rain = 0
KPPS 270020Z 14017G22KT 19/08 A3018 RMK A01 T01940083  RH  050%=      5-min Rain = 0
KPPS 270025Z 14017KT 19/08 A3018 RMK A01 T01930084  RH  051%=      5-min Rain = 0
KPPS 270030Z 14014KT 19/09 A3018 RMK A01 T01920085  RH  051%=      5-min Rain = 0
KPPS 270035Z 14014G19KT 19/09 A3018 RMK A01 T01900086  RH  052%=      5-min Rain = 0
KPPS 270040Z 15014G19KT 19/09 A3018 RMK A01 T01890087  RH  053%=      5-min Rain = 0
KPPS 270045Z 15014G19KT 19/09 A3019 RMK A01 T01870087  RH  054%=      5-min Rain = 0
KPPS 270050Z 14014G19KT 19/09 A3018 RMK A01 T01860088  RH  054%=      5-min Rain = 0
KPPS 270055Z 14014KT 18/09 A3018 RMK A01 T01840088  RH  055%=      5-min Rain = 0
KPPS 270100Z 14013G18KT 18/09 A3018 RMK A01 T01830088  RH  056%=      5-min Rain = 0
KPPS 270105Z 13015KT 18/09 A3018 RMK A01 T01820088  RH  056%=      5-min Rain = 0
KPPS 270110Z 13013G18KT 18/09 A3018 RMK A01 T01800086  RH  056%=      5-min Rain = 0
KPPS 270115Z 13013KT 18/09 A3018 RMK A01 T01770085  RH  057%=      5-min Rain = 0
KPPS 270120Z 13012KT 18/09 A3018 RMK A01 T01760086  RH  057%=      5-min Rain = 0
KPPS 270125Z 13011KT 17/09 A3018 RMK A01 T01740086  RH  058%=      5-min Rain = 0
KPPS 270130Z 13011KT 17/09 A3018 RMK A01 T01730086  RH  058%=      5-min Rain = 0
KPPS 270135Z 13012KT 17/09 A3019 RMK A01 T01720086  RH  059%=      5-min Rain = 0
KPPS 270140Z 13012G18KT 17/09 A3019 RMK A01 T01730087  RH  059%=      5-min Rain = 0
KPPS 270145Z 13013G18KT 17/09 A3019 RMK A01 T01720087  RH  059%=      5-min Rain = 0
KPPS 270150Z 14012KT 17/09 A3019 RMK A01 T01720087  RH  059%=      5-min Rain = 0
KPPS 270155Z 13012KT 17/09 A3019 RMK A01 T01690087  RH  060%=      5-min Rain = 0
KPPS 270200Z 13013KT 17/09 A3019 RMK A01 T01690088  RH  061%=      5-min Rain = 0
KPPS 270205Z 13014G21KT 17/09 A3018 RMK A01 T01690088  RH  061%=      5-min Rain = 0
KPPS 270210Z 13014KT 17/09 A3018 RMK A01 T01680088  RH  061%=      5-min Rain = 0
KPPS 270215Z 13014KT 17/09 A3018 RMK A01 T01680088  RH  061%=      5-min Rain = 0
KPPS 270220Z 13015KT 17/09 A3018 RMK A01 T01680088  RH  061%=      5-min Rain = 0
KPPS 270225Z 13013KT 17/09 A3018 RMK A01 T01680087  RH  061%=      5-min Rain = 0
KPPS 270230Z 13014KT 17/09 A3018 RMK A01 T01660087  RH  061%=      5-min Rain = 0
KPPS 270235Z 13013KT 17/09 A3019 RMK A01 T01650087  RH  062%=      5-min Rain = 0
KPPS 270240Z 13013KT 16/09 A3019 RMK A01 T01640086  RH  062%=      5-min Rain = 0
KPPS 270245Z 13013KT 16/09 A3019 RMK A01 T01630086  RH  062%=      5-min Rain = 0
KPPS 270250Z 13013KT 16/09 A3019 RMK A01 T01620085  RH  062%=      5-min Rain = 0
KPPS 270255Z 13013G18KT 16/08 A3019 RMK A01 T01610084  RH  062%=      5-min Rain = 0
KPPS 270300Z 13013KT 16/08 A3019 RMK A01 T01600083  RH  062%=      5-min Rain = 0
KPPS 270305Z 13012KT 16/08 A3019 RMK A01 T01580083  RH  062%=      5-min Rain = 0
KPPS 270310Z 13013KT 16/08 A302 RMK A01 T01580082  RH  062%=      5-min Rain = 0
KPPS 270315Z 13013KT 16/08 A302 RMK A01 T01580081  RH  062%=      5-min Rain = 0
KPPS 270320Z 13014KT 16/08 A302 RMK A01 T01570080  RH  062%=      5-min Rain = 0
KPPS 270325Z 13013G18KT 16/08 A302 RMK A01 T01550079  RH  062%=      5-min Rain = 0
KPPS 270330Z 13013KT 16/08 A302 RMK A01 T01550078  RH  062%=      5-min Rain = 0
KPPS 270335Z 13013KT 15/08 A302 RMK A01 T01530077  RH  062%=      5-min Rain = 0
KPPS 270340Z 13014KT 15/08 A302 RMK A01 T01520077  RH  062%=      5-min Rain = 0
KPPS 270345Z 13013KT 15/08 A302 RMK A01 T01510076  RH  062%=      5-min Rain = 0
KPPS 270350Z 13014KT 15/08 A302 RMK A01 T01500075  RH  062%=      5-min Rain = 0
KPPS 270355Z 13012KT 15/08 A302 RMK A01 T01490075  RH  063%=      5-min Rain = 0
KPPS 270400Z 14013KT 15/07 A302 RMK A01 T01480074  RH  063%=      5-min Rain = 0
KPPS 270405Z 14013KT 15/07 A302 RMK A01 T01470074  RH  063%=      5-min Rain = 0
KPPS 270410Z 14013KT 15/07 A302 RMK A01 T01460073  RH  063%=      5-min Rain = 0
KPPS 270415Z 14012KT 14/07 A302 RMK A01 T01440073  RH  064%=      5-min Rain = 0
KPPS 270420Z 13012KT 14/07 A302 RMK A01 T01430072  RH  064%=      5-min Rain = 0
KPPS 270425Z 13011KT 14/07 A3021 RMK A01 T01410072  RH  064%=      5-min Rain = 0
KPPS 270430Z 14012KT 14/07 A3021 RMK A01 T01400072  RH  065%=      5-min Rain = 0
KPPS 270435Z 14012KT 14/07 A3021 RMK A01 T01410071  RH  064%=      5-min Rain = 0
KPPS 270440Z 14012KT 14/07 A3021 RMK A01 T01400070  RH  065%=      5-min Rain = 0
KPPS 270445Z 14011KT 14/07 A3021 RMK A01 T01380070  RH  065%=      5-min Rain = 0
KPPS 270450Z 14011KT 14/07 A3021 RMK A01 T01370069  RH  065%=      5-min Rain = 0
KPPS 270455Z 14012KT 14/07 A3021 RMK A01 T01370068  RH  065%=      5-min Rain = 0

Page generated in 0.0313 seconds.